createdAt,value
2023-03-24T00:02:28.931Z,4.13
2023-03-24T00:04:58.764Z,4.25
2023-03-24T00:07:27.465Z,3.97
2023-03-24T00:09:54.974Z,4.35
2023-03-24T00:12:22.794Z,3.47
2023-03-24T00:14:54.622Z,3.90
2023-03-24T00:17:25.807Z,4.13
2023-03-24T00:19:58.621Z,5.85
2023-03-24T00:22:28.631Z,5.45
2023-03-24T00:25:00.240Z,4.40
2023-03-24T00:27:30.381Z,4.25
2023-03-24T00:29:59.627Z,3.92
2023-03-24T00:32:27.474Z,4.10
2023-03-24T00:34:56.188Z,3.85
2023-03-24T00:37:24.195Z,4.15
2023-03-24T00:39:51.482Z,3.75
2023-03-24T00:42:19.563Z,3.88
2023-03-24T00:44:47.641Z,3.90
2023-03-24T00:47:18.005Z,4.50
2023-03-24T00:49:45.248Z,3.40
2023-03-24T00:52:21.109Z,3.13
2023-03-24T00:54:55.274Z,3.60
2023-03-24T00:57:22.892Z,3.22
2023-03-24T00:59:54.641Z,3.20
2023-03-24T01:02:27.925Z,3.17
2023-03-24T01:04:58.740Z,3.67
2023-03-24T01:07:30.259Z,3.60
2023-03-24T01:09:58.650Z,3.53
2023-03-24T01:12:32.122Z,3.80
2023-03-24T01:15:03.010Z,3.60
2023-03-24T01:17:31.012Z,3.60
2023-03-24T01:19:58.896Z,3.92
2023-03-24T01:22:31.208Z,4.32
2023-03-24T01:25:00.964Z,4.97
2023-03-24T01:27:28.533Z,4.20
2023-03-24T01:30:04.178Z,4.05
2023-03-24T01:32:31.744Z,4.30
2023-03-24T01:34:59.071Z,3.88
2023-03-24T01:37:26.949Z,3.78
2023-03-24T01:39:54.206Z,3.75
2023-03-24T01:42:26.661Z,3.80
2023-03-24T01:45:22.171Z,3.65
2023-03-24T01:47:50.135Z,4.00
2023-03-24T01:50:18.447Z,3.80
2023-03-24T01:52:46.080Z,4.32
2023-03-24T01:55:19.985Z,4.28
2023-03-24T01:57:56.295Z,3.92
2023-03-24T02:00:24.072Z,3.78
2023-03-24T02:03:01.813Z,4.30
2023-03-24T02:05:33.930Z,3.53
2023-03-24T02:08:16.352Z,4.15
2023-03-24T02:10:45.168Z,3.92
2023-03-24T02:13:13.022Z,5.00
2023-03-24T02:16:27.135Z,4.10
2023-03-24T02:19:25.164Z,4.70
2023-03-24T02:22:33.273Z,5.05
2023-03-24T02:25:16.437Z,5.07
2023-03-24T02:28:24.251Z,6.47
2023-03-24T02:31:24.368Z,5.70
2023-03-24T02:34:31.517Z,6.18
2023-03-24T02:37:27.768Z,5.88
2023-03-24T02:40:23.939Z,6.32
2023-03-24T02:43:06.969Z,6.32
2023-03-24T02:46:05.086Z,6.00
2023-03-24T02:48:39.828Z,6.03
2023-03-24T02:51:31.503Z,6.35
2023-03-24T02:54:16.846Z,6.43
2023-03-24T02:56:50.172Z,6.65
2023-03-24T02:59:27.009Z,6.50
2023-03-24T03:02:29.034Z,6.18
2023-03-24T03:05:42.602Z,6.03
2023-03-24T03:08:17.477Z,6.35
2023-03-24T03:10:50.500Z,6.40
2023-03-24T03:13:27.789Z,6.95
2023-03-24T03:16:00.688Z,6.30
2023-03-24T03:18:45.414Z,6.57
2023-03-24T03:21:21.462Z,6.07
2023-03-24T03:23:57.282Z,6.07
2023-03-24T03:26:28.697Z,6.50
2023-03-24T03:29:05.084Z,7.30
2023-03-24T03:31:45.108Z,6.72
2023-03-24T03:34:34.362Z,6.60
2023-03-24T03:37:41.504Z,5.25
2023-03-24T03:40:21.403Z,5.80
2023-03-24T03:42:49.287Z,6.40
2023-03-24T03:45:16.704Z,6.95
2023-03-24T03:47:45.418Z,6.80
2023-03-24T03:50:13.202Z,6.03
2023-03-24T03:52:41.738Z,7.30
2023-03-24T03:55:12.055Z,6.75
2023-03-24T03:57:40.313Z,6.85
2023-03-24T04:00:20.572Z,7.25
2023-03-24T04:03:12.234Z,7.03
2023-03-24T04:05:55.014Z,7.57
2023-03-24T04:08:54.533Z,6.30
2023-03-24T04:11:49.511Z,6.60
2023-03-24T04:14:19.849Z,6.70
2023-03-24T04:17:18.596Z,6.63
2023-03-24T04:20:12.448Z,7.28
2023-03-24T04:23:14.725Z,7.93
2023-03-24T04:26:45.440Z,7.25
2023-03-24T04:29:22.497Z,7.25
2023-03-24T04:32:21.327Z,7.07
2023-03-24T04:35:01.557Z,7.07
2023-03-24T04:37:33.475Z,7.60
2023-03-24T04:40:09.797Z,7.47
2023-03-24T04:42:52.715Z,8.05
2023-03-24T04:45:26.053Z,7.60
2023-03-24T04:48:01.420Z,8.07
2023-03-24T04:50:43.182Z,7.65
2023-03-24T04:53:11.931Z,8.00
2023-03-24T04:55:56.268Z,8.07
2023-03-24T04:58:24.694Z,8.82
2023-03-24T05:00:52.368Z,8.15
2023-03-24T05:03:20.058Z,7.88
2023-03-24T05:05:50.768Z,8.90
2023-03-24T05:08:20.281Z,8.82
2023-03-24T05:10:47.916Z,8.80
2023-03-24T05:13:16.235Z,9.07
2023-03-24T05:15:44.118Z,8.68
2023-03-24T05:18:11.958Z,8.48
2023-03-24T05:20:39.284Z,9.43
2023-03-24T05:23:07.679Z,9.30
2023-03-24T05:25:34.999Z,10.15
2023-03-24T05:28:02.640Z,10.95
2023-03-24T05:30:30.007Z,10.68
2023-03-24T05:32:57.953Z,11.07
2023-03-24T05:35:25.812Z,10.48
2023-03-24T05:37:53.478Z,10.63
2023-03-24T05:40:20.795Z,10.57
2023-03-24T05:42:52.293Z,10.57
2023-03-24T05:45:20.050Z,10.98
2023-03-24T05:47:48.501Z,11.30
2023-03-24T05:50:15.829Z,10.77
2023-03-24T05:52:43.771Z,10.70
2023-03-24T05:55:11.267Z,12.18
2023-03-24T05:57:38.909Z,10.70
2023-03-24T06:00:10.634Z,12.20
2023-03-24T06:02:39.929Z,11.65
2023-03-24T06:05:10.072Z,11.10
2023-03-24T06:07:44.998Z,11.10
2023-03-24T06:10:14.595Z,11.65
2023-03-24T06:12:42.423Z,11.20
2023-03-24T06:15:11.715Z,10.75
2023-03-24T06:17:39.434Z,11.23
2023-03-24T06:20:15.137Z,11.93
2023-03-24T06:22:45.804Z,12.95
2023-03-24T06:25:16.676Z,12.55
2023-03-24T06:27:48.170Z,13.35
2023-03-24T06:30:18.261Z,13.15
2023-03-24T06:32:46.939Z,14.23
2023-03-24T06:35:17.529Z,13.02
2023-03-24T06:37:45.454Z,14.05
2023-03-24T06:40:15.982Z,15.68
2023-03-24T06:42:43.671Z,13.93
2023-03-24T06:45:11.524Z,14.98
2023-03-24T06:47:39.320Z,14.50
2023-03-24T06:50:07.798Z,15.32
2023-03-24T06:52:36.632Z,13.70
2023-03-24T06:55:05.645Z,12.95
2023-03-24T06:57:33.320Z,14.43
2023-03-24T07:00:00.662Z,13.45
2023-03-24T07:02:34.473Z,12.07
2023-03-24T07:05:08.408Z,15.32
2023-03-24T07:10:08.153Z,11.93
2023-03-24T07:12:36.574Z,13.02
2023-03-24T07:15:04.815Z,13.45
2023-03-24T07:17:32.442Z,11.73
2023-03-24T07:19:59.789Z,12.45
2023-03-24T07:22:27.420Z,11.90
2023-03-24T07:24:56.475Z,13.40
2023-03-24T07:27:24.216Z,12.23
2023-03-24T07:29:52.044Z,11.70
2023-03-24T07:32:19.729Z,10.57
2023-03-24T07:34:48.325Z,12.02
2023-03-24T07:37:16.552Z,12.40
2023-03-24T07:39:43.798Z,12.80
2023-03-24T07:42:12.905Z,10.80
2023-03-24T07:44:40.423Z,11.45
2023-03-24T07:47:08.047Z,10.25
2023-03-24T07:49:35.564Z,12.27
2023-03-24T07:52:06.737Z,12.15
2023-03-24T07:54:34.399Z,11.73
2023-03-24T07:57:02.482Z,10.85
2023-03-24T07:59:30.171Z,11.38
2023-03-24T08:01:59.388Z,10.95
2023-03-24T08:04:28.684Z,10.57
2023-03-24T08:06:57.340Z,10.18
2023-03-24T08:09:25.126Z,9.23
2023-03-24T08:11:53.008Z,9.73
2023-03-24T08:14:20.533Z,9.18
2023-03-24T08:16:48.149Z,9.20
2023-03-24T08:19:15.613Z,9.57
2023-03-24T08:21:43.209Z,10.38
2023-03-24T08:24:10.608Z,10.20
2023-03-24T08:26:39.108Z,8.57
2023-03-24T08:29:06.590Z,8.52
2023-03-24T08:31:36.700Z,7.50
2023-03-24T08:34:06.632Z,7.47
2023-03-24T08:36:34.297Z,7.70
2023-03-24T08:39:01.944Z,7.22
2023-03-24T08:41:35.196Z,6.60
2023-03-24T08:44:06.865Z,7.18
2023-03-24T08:46:35.315Z,8.32
2023-03-24T08:49:03.162Z,7.38
2023-03-24T08:51:31.761Z,7.95
2023-03-24T08:53:59.610Z,7.70
2023-03-24T08:56:27.321Z,6.80
2023-03-24T08:58:54.598Z,6.50
2023-03-24T09:01:25.833Z,6.40
2023-03-24T09:03:53.227Z,5.75
2023-03-24T09:06:20.819Z,5.63
2023-03-24T09:08:48.149Z,5.38
2023-03-24T09:11:19.182Z,4.72
2023-03-24T09:13:47.398Z,4.40
2023-03-24T09:16:15.896Z,4.32
2023-03-24T09:18:44.230Z,3.72
2023-03-24T09:21:12.639Z,5.40
2023-03-24T09:23:40.058Z,4.70
2023-03-24T09:26:08.231Z,4.38
2023-03-24T09:28:35.555Z,4.40
2023-03-24T09:31:06.573Z,4.60
2023-03-24T09:33:35.091Z,4.07
2023-03-24T09:36:04.702Z,5.40
2023-03-24T09:38:33.657Z,4.07
2023-03-24T09:41:03.451Z,6.63
2023-03-24T09:43:51.895Z,6.57
2023-03-24T09:46:33.909Z,4.63
2023-03-24T09:49:01.482Z,4.00
2023-03-24T09:51:38.340Z,4.78
2023-03-24T09:54:42.190Z,7.18
2023-03-24T09:57:22.281Z,6.18
2023-03-24T09:59:49.769Z,5.35
2023-03-24T10:02:21.176Z,5.72
2023-03-24T10:04:50.544Z,5.28
2023-03-24T10:07:51.269Z,6.40
2023-03-24T10:10:43.464Z,11.95
2023-03-24T10:13:25.448Z,5.40
2023-03-24T10:16:18.497Z,6.78
2023-03-24T10:19:21.725Z,5.88
2023-03-24T10:22:22.348Z,5.68
2023-03-24T10:25:19.391Z,5.25
2023-03-24T10:28:05.696Z,4.60
2023-03-24T10:30:44.374Z,4.97
2023-03-24T10:33:15.003Z,5.15
2023-03-24T10:36:05.223Z,6.50
2023-03-24T10:38:34.129Z,4.88
2023-03-24T10:41:02.832Z,5.50
2023-03-24T10:43:31.565Z,8.02
2023-03-24T10:46:02.187Z,5.28
2023-03-24T10:48:46.678Z,5.93
2023-03-24T10:51:32.900Z,5.25
2023-03-24T10:54:15.821Z,5.45
2023-03-24T10:56:50.553Z,5.22
2023-03-24T10:59:27.447Z,5.35
2023-03-24T11:02:27.100Z,5.30
2023-03-24T11:05:22.670Z,5.60
2023-03-24T11:07:52.074Z,8.63
2023-03-24T11:10:25.970Z,5.13
2023-03-24T11:12:59.094Z,6.38
2023-03-24T11:15:30.599Z,5.65
2023-03-24T11:18:17.214Z,5.78
2023-03-24T11:20:56.635Z,6.70
2023-03-24T11:23:40.203Z,5.78
2023-03-24T11:26:28.704Z,5.53
2023-03-24T11:29:06.184Z,5.25
2023-03-24T11:31:39.279Z,7.18
2023-03-24T11:34:34.515Z,5.47
2023-03-24T11:37:11.377Z,8.55
2023-03-24T11:39:39.038Z,7.13
2023-03-24T11:42:12.335Z,5.35
2023-03-24T11:44:39.941Z,4.65
2023-03-24T11:47:27.741Z,5.53
2023-03-24T11:50:10.084Z,5.82
2023-03-24T11:53:34.284Z,6.07
2023-03-24T11:56:40.728Z,5.22
2023-03-24T11:59:37.160Z,5.18
2023-03-24T12:02:47.233Z,5.82
2023-03-24T12:05:51.011Z,6.13
2023-03-24T12:08:27.967Z,6.45
2023-03-24T12:11:27.920Z,6.68
2023-03-24T12:14:02.083Z,6.65
2023-03-24T12:16:51.921Z,7.15
2023-03-24T12:19:29.791Z,7.28
2023-03-24T12:22:08.763Z,6.60
2023-03-24T12:25:08.191Z,7.18
2023-03-24T12:27:52.480Z,6.35
2023-03-24T12:31:07.054Z,6.25
2023-03-24T12:33:48.658Z,6.82
2023-03-24T12:36:59.058Z,6.18
2023-03-24T12:39:36.072Z,6.30
2023-03-24T12:42:12.800Z,5.68
2023-03-24T12:45:46.034Z,6.75
2023-03-24T12:48:55.106Z,6.03
2023-03-24T12:52:00.611Z,6.85
2023-03-24T12:54:51.369Z,7.10
2023-03-24T12:57:25.845Z,7.72
2023-03-24T13:00:08.768Z,7.10
2023-03-24T13:03:01.437Z,7.05
2023-03-24T13:05:39.461Z,6.18
2023-03-24T13:08:17.710Z,6.22
2023-03-24T13:10:47.498Z,7.57
2023-03-24T13:13:22.838Z,17.45
2023-03-24T13:16:04.600Z,6.32
2023-03-24T13:18:47.187Z,5.88
2023-03-24T13:21:18.105Z,6.50
2023-03-24T13:23:55.113Z,6.25
2023-03-24T13:26:40.863Z,10.65
2023-03-24T13:30:05.759Z,6.35
2023-03-24T13:32:47.039Z,8.65
2023-03-24T13:35:36.942Z,7.25
2023-03-24T13:38:32.471Z,7.18
2023-03-24T13:41:05.596Z,7.22
2023-03-24T13:43:35.074Z,7.05
2023-03-24T13:46:13.567Z,8.27
2023-03-24T13:48:58.200Z,7.13
2023-03-24T13:51:40.472Z,7.25
2023-03-24T13:54:19.019Z,7.82
2023-03-24T13:56:53.956Z,7.82
2023-03-24T13:59:32.345Z,7.38
2023-03-24T14:02:40.661Z,7.47
2023-03-24T14:05:28.809Z,5.93
2023-03-24T14:08:05.152Z,7.45
2023-03-24T14:10:42.875Z,7.22
2023-03-24T14:13:21.864Z,6.97
2023-03-24T14:15:55.579Z,10.77
2023-03-24T14:18:26.455Z,9.88
2023-03-24T14:20:57.217Z,7.60
2023-03-24T14:23:53.282Z,7.00
2023-03-24T14:26:20.794Z,7.70
2023-03-24T14:28:53.550Z,6.63
2023-03-24T14:31:29.874Z,7.25
2023-03-24T14:34:02.544Z,6.72
2023-03-24T14:36:41.299Z,5.47
2023-03-24T14:39:39.929Z,4.63
2023-03-24T14:42:32.344Z,4.65
2023-03-24T14:45:07.191Z,4.47
2023-03-24T14:47:44.352Z,4.95
2023-03-24T14:50:32.417Z,5.10
2023-03-24T14:53:04.253Z,4.57
2023-03-24T14:55:33.253Z,4.70
2023-03-24T14:58:19.995Z,4.78
2023-03-24T15:01:06.370Z,4.97
2023-03-24T15:04:05.228Z,4.70
2023-03-24T15:06:33.382Z,4.80
2023-03-24T15:09:10.413Z,4.90
2023-03-24T15:11:41.531Z,5.82
2023-03-24T15:14:25.959Z,5.72
2023-03-24T15:17:18.938Z,5.38
2023-03-24T15:19:54.500Z,6.07
2023-03-24T15:22:23.241Z,6.40
2023-03-24T15:24:52.578Z,6.72
2023-03-24T15:27:26.768Z,5.75
2023-03-24T15:30:00.341Z,6.10
2023-03-24T15:32:32.245Z,5.50
2023-03-24T15:35:06.628Z,5.55
2023-03-24T15:37:48.373Z,5.78
2023-03-24T15:40:30.437Z,5.35
2023-03-24T15:43:05.292Z,5.97
2023-03-24T15:45:49.507Z,6.00
2023-03-24T15:48:34.589Z,7.53
2023-03-24T15:51:06.519Z,7.35
2023-03-24T15:53:33.715Z,7.22
2023-03-24T15:56:17.591Z,7.18
2023-03-24T15:59:04.304Z,7.38
2023-03-24T16:01:36.321Z,6.07
2023-03-24T16:04:14.582Z,6.30
2023-03-24T16:06:53.566Z,7.07
2023-03-24T16:09:27.383Z,7.43
2023-03-24T16:11:55.492Z,6.07
2023-03-24T16:14:27.247Z,5.38
2023-03-24T16:16:58.313Z,5.30
2023-03-24T16:19:26.545Z,6.18
2023-03-24T16:21:57.955Z,6.55
2023-03-24T16:24:25.519Z,6.25
2023-03-24T16:26:53.130Z,6.07
2023-03-24T16:29:24.190Z,6.32
2023-03-24T16:31:56.160Z,6.07
2023-03-24T16:34:24.752Z,6.45
2023-03-24T16:36:54.792Z,6.50
2023-03-24T16:39:28.900Z,6.85
2023-03-24T16:41:57.231Z,6.20
2023-03-24T16:44:25.373Z,7.28
2023-03-24T16:46:55.056Z,6.55
2023-03-24T16:49:24.164Z,7.00
2023-03-24T16:51:53.175Z,8.98
2023-03-24T16:54:21.185Z,8.40
2023-03-24T16:56:49.109Z,9.25
2023-03-24T16:59:16.488Z,9.55
2023-03-24T17:01:46.452Z,8.70
2023-03-24T17:04:21.229Z,7.60
2023-03-24T17:06:55.082Z,7.97
2023-03-24T17:09:23.152Z,7.40
2023-03-24T17:11:59.220Z,8.20
2023-03-24T17:14:26.577Z,7.53
2023-03-24T17:16:54.257Z,7.95
2023-03-24T17:19:24.707Z,8.10
2023-03-24T17:22:01.900Z,8.57
2023-03-24T17:24:35.939Z,9.38
2023-03-24T17:27:10.487Z,8.35
2023-03-24T17:29:37.806Z,8.93
2023-03-24T17:32:05.838Z,9.10
2023-03-24T17:34:33.134Z,9.35
2023-03-24T17:37:01.023Z,9.75
2023-03-24T17:39:28.327Z,9.15
2023-03-24T17:41:59.586Z,10.93
2023-03-24T17:44:27.394Z,10.07
2023-03-24T17:46:55.077Z,9.65
2023-03-24T17:49:22.503Z,9.82
2023-03-24T17:51:50.654Z,10.10
2023-03-24T17:54:20.469Z,10.77
2023-03-24T17:56:48.207Z,10.80
2023-03-24T17:59:15.660Z,10.27
2023-03-24T18:01:43.498Z,10.82
2023-03-24T18:04:10.889Z,11.95
2023-03-24T18:06:38.748Z,11.65
2023-03-24T18:09:07.564Z,11.75
2023-03-24T18:11:36.283Z,12.48
2023-03-24T18:14:03.754Z,13.02
2023-03-24T18:16:31.453Z,13.30
2023-03-24T18:19:00.772Z,11.93
2023-03-24T18:21:28.842Z,11.63
2023-03-24T18:23:56.515Z,11.38
2023-03-24T18:26:24.568Z,11.18
2023-03-24T18:28:52.307Z,10.48
2023-03-24T18:31:23.615Z,11.13
2023-03-24T18:33:52.170Z,11.68
2023-03-24T18:36:26.453Z,12.98
2023-03-24T18:39:08.752Z,10.93
2023-03-24T18:41:38.024Z,11.68
2023-03-24T18:44:13.771Z,11.30
2023-03-24T18:46:42.162Z,10.65
2023-03-24T18:49:15.897Z,12.45
2023-03-24T18:51:45.221Z,10.70
2023-03-24T18:54:14.779Z,11.27
2023-03-24T18:56:42.400Z,10.38
2023-03-24T18:59:11.706Z,11.10
2023-03-24T19:01:39.420Z,10.35
2023-03-24T19:04:08.898Z,10.00
2023-03-24T19:06:37.313Z,10.82
2023-03-24T19:09:05.569Z,10.05
2023-03-24T19:11:33.131Z,10.30
2023-03-24T19:14:02.481Z,10.30
2023-03-24T19:16:32.892Z,9.98
2023-03-24T19:19:01.115Z,10.00
2023-03-24T19:21:30.821Z,9.40
2023-03-24T19:23:58.252Z,13.38
2023-03-24T19:26:26.225Z,10.27
2023-03-24T19:28:54.046Z,11.63
2023-03-24T19:31:21.840Z,9.30
2023-03-24T19:33:51.708Z,7.85
2023-03-24T19:36:19.956Z,8.25
2023-03-24T19:38:49.050Z,8.48
2023-03-24T19:41:16.688Z,10.02
2023-03-24T19:43:44.145Z,8.57
2023-03-24T19:46:12.300Z,8.38
2023-03-24T19:48:39.805Z,7.57
2023-03-24T19:51:07.451Z,7.85
2023-03-24T19:53:34.968Z,10.05
2023-03-24T19:56:04.228Z,7.80
2023-03-24T19:58:31.840Z,7.85
2023-03-24T20:00:59.871Z,7.95
2023-03-24T20:03:28.959Z,8.10
2023-03-24T20:05:56.916Z,7.68
2023-03-24T20:08:26.134Z,8.48
2023-03-24T20:10:53.930Z,8.48
2023-03-24T20:13:23.844Z,7.97
2023-03-24T20:15:51.850Z,7.43
2023-03-24T20:18:19.481Z,7.50
2023-03-24T20:20:47.470Z,6.90
2023-03-24T20:23:14.884Z,7.07
2023-03-24T20:25:44.213Z,6.38
2023-03-24T20:28:13.069Z,6.25
2023-03-24T20:30:42.870Z,6.10
2023-03-24T20:33:10.309Z,6.95
2023-03-24T20:35:39.360Z,7.07
2023-03-24T20:38:07.035Z,7.20
2023-03-24T20:40:34.767Z,8.00
2023-03-24T20:43:02.140Z,8.60
2023-03-24T20:45:29.757Z,6.68
2023-03-24T20:47:57.534Z,6.97
2023-03-24T20:50:25.192Z,7.32
2023-03-24T20:52:52.542Z,6.60
2023-03-24T20:55:20.486Z,8.15
2023-03-24T20:57:48.420Z,8.98
2023-03-24T21:00:16.733Z,6.93
2023-03-24T21:02:45.299Z,7.47
2023-03-24T21:05:13.043Z,7.10
2023-03-24T21:07:44.026Z,6.40
2023-03-24T21:10:19.022Z,7.15
2023-03-24T21:12:53.575Z,6.47
2023-03-24T21:15:27.627Z,7.70
2023-03-24T21:17:57.091Z,6.88
2023-03-24T21:20:30.782Z,6.40
2023-03-24T21:23:03.515Z,5.65
2023-03-24T21:25:37.663Z,7.22
2023-03-24T21:28:05.499Z,5.88
2023-03-24T21:30:33.307Z,7.82
2023-03-24T21:33:01.538Z,6.93
2023-03-24T21:35:30.331Z,6.97
2023-03-24T21:37:57.889Z,6.05
2023-03-24T21:40:26.295Z,5.75
2023-03-24T21:42:54.081Z,6.50
2023-03-24T21:45:23.577Z,6.95
2023-03-24T21:47:55.119Z,6.68
2023-03-24T21:50:23.577Z,7.38
2023-03-24T21:52:54.152Z,6.85
2023-03-24T21:55:26.425Z,6.50
2023-03-24T21:57:54.754Z,7.60
2023-03-24T22:00:30.656Z,7.43
2023-03-24T22:02:58.408Z,7.25
2023-03-24T22:05:29.390Z,6.72
2023-03-24T22:07:56.687Z,6.55
2023-03-24T22:10:24.748Z,6.38
2023-03-24T22:12:53.650Z,6.13
2023-03-24T22:15:22.963Z,5.88
2023-03-24T22:17:51.173Z,5.65
2023-03-24T22:20:19.445Z,5.13
2023-03-24T22:22:47.285Z,4.95
2023-03-24T22:25:18.373Z,4.78
2023-03-24T22:27:50.635Z,4.32
2023-03-24T22:30:20.108Z,4.10
2023-03-24T22:32:47.602Z,4.18
2023-03-24T22:35:15.632Z,4.15
2023-03-24T22:37:42.967Z,3.47
2023-03-24T22:40:10.730Z,4.18
2023-03-24T22:42:38.171Z,3.78
2023-03-24T22:45:06.921Z,4.32
2023-03-24T22:47:36.473Z,3.60
2023-03-24T22:50:04.833Z,4.13
2023-03-24T22:52:32.624Z,3.55
2023-03-24T22:55:01.241Z,4.03
2023-03-24T22:57:30.075Z,3.85
2023-03-24T23:00:01.959Z,3.78
2023-03-24T23:02:29.656Z,3.90
2023-03-24T23:04:57.494Z,3.72
2023-03-24T23:07:28.249Z,3.60
2023-03-24T23:09:59.452Z,4.20
2023-03-24T23:12:27.242Z,3.95
2023-03-24T23:14:54.881Z,4.40
2023-03-24T23:17:24.310Z,3.95
2023-03-24T23:19:53.791Z,3.47
2023-03-24T23:22:21.407Z,3.40
2023-03-24T23:25:02.786Z,3.47
2023-03-24T23:27:38.642Z,4.00
2023-03-24T23:30:09.512Z,4.10
2023-03-24T23:32:38.083Z,3.67
2023-03-24T23:35:08.951Z,3.70
2023-03-24T23:37:39.620Z,3.40
2023-03-24T23:40:15.019Z,4.60
2023-03-24T23:42:46.795Z,4.47
2023-03-24T23:45:19.079Z,4.30
2023-03-24T23:47:50.843Z,4.57
2023-03-24T23:50:21.043Z,4.82
2023-03-24T23:52:48.869Z,5.18
2023-03-24T23:55:18.340Z,4.38
2023-03-24T23:57:46.818Z,3.92
